Sioralik

KL  EN  DA
ASIAQ
Weather Now GREENLAND SURVEY
Updated [WGT/WGST] Temperature [°C] Wind [m/s] Air pressure [hPa] Relative humidity [%] Precipitation [mm]
Present Wind chill Speed Max
21.01 19:00-9,5-19,910,8 ⇐12,4101069n/a
21.01 18:00-9,5-19,710,3 ⇐12,4101169n/a
21.01 17:00-8,7-17,27,2 ⇐9,8101168n/a
21.01 16:00-8,7-14,13,1 ⇐4,1101256n/a
21.01 15:00-8,8-15,24,1 ⇐5,7101162n/a
21.01 14:00-9,0-16,75,7 ⇙6,7101163n/a
21.01 13:00-8,6-14,94,1 ⇓6,2101257n/a
21.01 12:00-8,7-15,54,6 ⇓7,2101154n/a
21.01 11:00-8,9-16,55,7 ⇓8,2101156n/a
21.01 10:00-8,8-17,06,7 ⇘10,8101160n/a
21.01 09:00-8,9-18,38,8 ⇘11,8101060n/a
21.01 08:00-8,9-18,38,8 ⇘11,8101068n/a
21.01 07:00-8,8-18,69,8 ⇘13,4100965n/a
21.01 06:00-8,6-18,710,8 ⇘13,9100862n/a
21.01 05:00-8,7-18,710,3 ⇘14,4100764n/a
21.01 04:00-8,7-18,59,8 ⇘12,4100666n/a
21.01 03:00-8,7-19,311,8 ⇘14,4100579n/a
21.01 02:00-8,7-18,59,8 ⇘12,9100560n/a
21.01 01:00-8,6-18,510,3 ⇘13,9100466n/a
21.01 00:00-8,7-19,311,8 ⇒16,0100370n/a
20.01 23:00-8,5-18,410,3 ⇘12,9100274n/a
20.01 22:00-8,6-18,510,3 ⇒13,4100263n/a
20.01 21:00-8,5-18,09,3 ⇘12,4100171n/a
20.01 20:00-8,4-17,17,7 ⇘11,3100163n/a
20.01 19:00-8,4-18,510,8 ⇒13,499966n/a
Position: (65.01305556,-52.52861111)

[Back]